sensor_id;sensor_type;location;lat;lon;timestamp;P1;durP1;ratioP1;P2;durP2;ratioP2
4307;SDS011;2167;53.448;9.984;2022-08-25T00:01:20;4.50;;;3.90;;
4307;SDS011;2167;53.448;9.984;2022-08-25T00:03:48;5.20;;;4.23;;
4307;SDS011;2167;53.448;9.984;2022-08-25T00:06:14;4.27;;;3.30;;
4307;SDS011;2167;53.448;9.984;2022-08-25T00:08:40;4.47;;;3.33;;
4307;SDS011;2167;53.448;9.984;2022-08-25T00:11:08;4.80;;;4.27;;
4307;SDS011;2167;53.448;9.984;2022-08-25T00:13:41;3.70;;;3.13;;
4307;SDS011;2167;53.448;9.984;2022-08-25T00:16:09;6.03;;;4.10;;
4307;SDS011;2167;53.448;9.984;2022-08-25T00:18:36;5.10;;;3.60;;
4307;SDS011;2167;53.448;9.984;2022-08-25T00:21:05;5.40;;;3.80;;
4307;SDS011;2167;53.448;9.984;2022-08-25T00:23:32;6.33;;;4.37;;
4307;SDS011;2167;53.448;9.984;2022-08-25T00:25:58;3.73;;;3.23;;
4307;SDS011;2167;53.448;9.984;2022-08-25T00:28:25;6.37;;;4.03;;
4307;SDS011;2167;53.448;9.984;2022-08-25T00:30:50;5.50;;;3.63;;
4307;SDS011;2167;53.448;9.984;2022-08-25T00:33:16;4.40;;;4.00;;
4307;SDS011;2167;53.448;9.984;2022-08-25T00:35:43;6.63;;;4.43;;
4307;SDS011;2167;53.448;9.984;2022-08-25T00:38:09;8.60;;;4.37;;
4307;SDS011;2167;53.448;9.984;2022-08-25T00:40:36;6.67;;;4.00;;
4307;SDS011;2167;53.448;9.984;2022-08-25T00:43:04;6.27;;;3.70;;
4307;SDS011;2167;53.448;9.984;2022-08-25T00:45:31;17.83;;;5.17;;
4307;SDS011;2167;53.448;9.984;2022-08-25T00:47:57;5.63;;;4.20;;
4307;SDS011;2167;53.448;9.984;2022-08-25T00:50:23;4.87;;;4.30;;
4307;SDS011;2167;53.448;9.984;2022-08-25T00:52:51;4.43;;;3.97;;
4307;SDS011;2167;53.448;9.984;2022-08-25T00:55:24;6.00;;;4.77;;
4307;SDS011;2167;53.448;9.984;2022-08-25T00:57:55;8.43;;;4.70;;
4307;SDS011;2167;53.448;9.984;2022-08-25T01:00:29;6.33;;;4.23;;
4307;SDS011;2167;53.448;9.984;2022-08-25T01:02:57;8.03;;;4.60;;
4307;SDS011;2167;53.448;9.984;2022-08-25T01:05:24;8.70;;;4.60;;
4307;SDS011;2167;53.448;9.984;2022-08-25T01:07:51;5.13;;;4.20;;
4307;SDS011;2167;53.448;9.984;2022-08-25T01:10:18;4.83;;;4.20;;
4307;SDS011;2167;53.448;9.984;2022-08-25T01:12:46;4.37;;;3.97;;
4307;SDS011;2167;53.448;9.984;2022-08-25T01:15:13;5.40;;;4.57;;
4307;SDS011;2167;53.448;9.984;2022-08-25T01:20:13;5.33;;;4.30;;
4307;SDS011;2167;53.448;9.984;2022-08-25T01:22:40;8.40;;;5.00;;
4307;SDS011;2167;53.448;9.984;2022-08-25T01:25:10;9.40;;;4.20;;
4307;SDS011;2167;53.448;9.984;2022-08-25T01:27:53;6.07;;;5.33;;
4307;SDS011;2167;53.448;9.984;2022-08-25T01:30:19;9.77;;;5.07;;
4307;SDS011;2167;53.448;9.984;2022-08-25T01:32:45;6.37;;;4.40;;
4307;SDS011;2167;53.448;9.984;2022-08-25T01:35:11;5.47;;;4.30;;
4307;SDS011;2167;53.448;9.984;2022-08-25T01:37:38;6.20;;;4.30;;
4307;SDS011;2167;53.448;9.984;2022-08-25T01:40:04;6.33;;;5.03;;
4307;SDS011;2167;53.448;9.984;2022-08-25T01:45:21;10.63;;;5.73;;
4307;SDS011;2167;53.448;9.984;2022-08-25T01:47:47;5.63;;;4.50;;
4307;SDS011;2167;53.448;9.984;2022-08-25T01:50:12;5.73;;;5.10;;
4307;SDS011;2167;53.448;9.984;2022-08-25T01:55:35;4.53;;;4.03;;
4307;SDS011;2167;53.448;9.984;2022-08-25T01:58:23;6.80;;;5.83;;
4307;SDS011;2167;53.448;9.984;2022-08-25T02:00:52;5.40;;;4.00;;
4307;SDS011;2167;53.448;9.984;2022-08-25T02:03:20;6.87;;;4.10;;
4307;SDS011;2167;53.448;9.984;2022-08-25T02:05:47;8.70;;;5.00;;
4307;SDS011;2167;53.448;9.984;2022-08-25T02:08:13;6.23;;;5.63;;
4307;SDS011;2167;53.448;9.984;2022-08-25T02:10:40;5.60;;;3.83;;
4307;SDS011;2167;53.448;9.984;2022-08-25T02:13:06;8.60;;;4.60;;
4307;SDS011;2167;53.448;9.984;2022-08-25T02:15:33;4.63;;;4.20;;
4307;SDS011;2167;53.448;9.984;2022-08-25T02:17:59;5.30;;;4.30;;
4307;SDS011;2167;53.448;9.984;2022-08-25T02:20:24;9.43;;;4.77;;
4307;SDS011;2167;53.448;9.984;2022-08-25T02:22:51;4.63;;;4.17;;
4307;SDS011;2167;53.448;9.984;2022-08-25T02:25:18;7.70;;;4.33;;
4307;SDS011;2167;53.448;9.984;2022-08-25T02:27:44;7.40;;;4.87;;
4307;SDS011;2167;53.448;9.984;2022-08-25T02:30:12;6.20;;;4.10;;
4307;SDS011;2167;53.448;9.984;2022-08-25T02:32:38;6.50;;;4.80;;
4307;SDS011;2167;53.448;9.984;2022-08-25T02:35:05;4.90;;;3.90;;
4307;SDS011;2167;53.448;9.984;2022-08-25T02:37:32;5.10;;;4.60;;
4307;SDS011;2167;53.448;9.984;2022-08-25T02:39:58;6.30;;;4.13;;
4307;SDS011;2167;53.448;9.984;2022-08-25T02:42:24;6.43;;;5.20;;
4307;SDS011;2167;53.448;9.984;2022-08-25T02:44:51;6.00;;;4.30;;
4307;SDS011;2167;53.448;9.984;2022-08-25T02:47:17;5.30;;;4.60;;
4307;SDS011;2167;53.448;9.984;2022-08-25T02:49:43;6.17;;;4.67;;
4307;SDS011;2167;53.448;9.984;2022-08-25T02:52:09;5.10;;;4.50;;
4307;SDS011;2167;53.448;9.984;2022-08-25T02:54:34;6.63;;;4.40;;
4307;SDS011;2167;53.448;9.984;2022-08-25T02:57:00;5.37;;;4.20;;
4307;SDS011;2167;53.448;9.984;2022-08-25T02:59:26;9.87;;;5.50;;
4307;SDS011;2167;53.448;9.984;2022-08-25T03:01:52;4.80;;;4.30;;
4307;SDS011;2167;53.448;9.984;2022-08-25T03:04:19;4.50;;;4.10;;
4307;SDS011;2167;53.448;9.984;2022-08-25T03:06:44;10.03;;;4.67;;
4307;SDS011;2167;53.448;9.984;2022-08-25T03:09:10;7.27;;;4.83;;
4307;SDS011;2167;53.448;9.984;2022-08-25T03:11:36;8.77;;;4.67;;
4307;SDS011;2167;53.448;9.984;2022-08-25T03:14:03;7.53;;;5.07;;
4307;SDS011;2167;53.448;9.984;2022-08-25T03:16:30;9.97;;;5.13;;
4307;SDS011;2167;53.448;9.984;2022-08-25T03:18:55;7.27;;;4.63;;
4307;SDS011;2167;53.448;9.984;2022-08-25T03:21:21;8.80;;;6.03;;
4307;SDS011;2167;53.448;9.984;2022-08-25T03:23:47;6.43;;;5.57;;
4307;SDS011;2167;53.448;9.984;2022-08-25T03:26:13;6.20;;;5.43;;
4307;SDS011;2167;53.448;9.984;2022-08-25T03:28:57;9.87;;;5.93;;
4307;SDS011;2167;53.448;9.984;2022-08-25T03:31:25;7.03;;;5.27;;
4307;SDS011;2167;53.448;9.984;2022-08-25T03:33:51;10.40;;;5.83;;
4307;SDS011;2167;53.448;9.984;2022-08-25T03:36:17;5.80;;;4.80;;
4307;SDS011;2167;53.448;9.984;2022-08-25T03:38:43;5.87;;;4.27;;
4307;SDS011;2167;53.448;9.984;2022-08-25T03:41:10;7.43;;;5.17;;
4307;SDS011;2167;53.448;9.984;2022-08-25T03:43:38;5.43;;;4.93;;
4307;SDS011;2167;53.448;9.984;2022-08-25T03:46:04;5.23;;;4.20;;
4307;SDS011;2167;53.448;9.984;2022-08-25T03:48:30;5.53;;;4.40;;
4307;SDS011;2167;53.448;9.984;2022-08-25T03:50:56;8.40;;;4.73;;
4307;SDS011;2167;53.448;9.984;2022-08-25T03:53:22;7.27;;;4.63;;
4307;SDS011;2167;53.448;9.984;2022-08-25T03:55:48;7.70;;;5.13;;
4307;SDS011;2167;53.448;9.984;2022-08-25T03:58:13;8.47;;;5.80;;
4307;SDS011;2167;53.448;9.984;2022-08-25T04:00:39;6.70;;;4.97;;
4307;SDS011;2167;53.448;9.984;2022-08-25T04:03:05;6.93;;;5.57;;
4307;SDS011;2167;53.448;9.984;2022-08-25T04:05:31;8.70;;;6.10;;
4307;SDS011;2167;53.448;9.984;2022-08-25T04:07:57;8.60;;;5.97;;
4307;SDS011;2167;53.448;9.984;2022-08-25T04:10:22;11.40;;;6.47;;
4307;SDS011;2167;53.448;9.984;2022-08-25T04:12:48;18.00;;;5.97;;
4307;SDS011;2167;53.448;9.984;2022-08-25T04:15:14;12.10;;;6.00;;
4307;SDS011;2167;53.448;9.984;2022-08-25T04:17:39;9.67;;;5.90;;
4307;SDS011;2167;53.448;9.984;2022-08-25T04:20:06;9.50;;;5.67;;
4307;SDS011;2167;53.448;9.984;2022-08-25T04:22:33;11.27;;;5.90;;
4307;SDS011;2167;53.448;9.984;2022-08-25T04:25:00;7.60;;;4.77;;
4307;SDS011;2167;53.448;9.984;2022-08-25T04:27:26;8.27;;;5.30;;
4307;SDS011;2167;53.448;9.984;2022-08-25T04:29:51;9.17;;;5.23;;
4307;SDS011;2167;53.448;9.984;2022-08-25T04:32:17;9.17;;;5.70;;
4307;SDS011;2167;53.448;9.984;2022-08-25T04:34:43;8.20;;;6.07;;
4307;SDS011;2167;53.448;9.984;2022-08-25T04:37:09;7.20;;;5.20;;
4307;SDS011;2167;53.448;9.984;2022-08-25T04:39:35;7.80;;;6.20;;
4307;SDS011;2167;53.448;9.984;2022-08-25T04:42:01;6.70;;;4.93;;
4307;SDS011;2167;53.448;9.984;2022-08-25T04:44:28;7.70;;;5.57;;
4307;SDS011;2167;53.448;9.984;2022-08-25T04:46:54;11.03;;;5.83;;
4307;SDS011;2167;53.448;9.984;2022-08-25T04:49:20;7.40;;;5.70;;
4307;SDS011;2167;53.448;9.984;2022-08-25T04:51:46;11.07;;;4.70;;
4307;SDS011;2167;53.448;9.984;2022-08-25T04:54:12;6.83;;;5.47;;
4307;SDS011;2167;53.448;9.984;2022-08-25T04:56:46;9.17;;;5.13;;
4307;SDS011;2167;53.448;9.984;2022-08-25T04:59:14;9.43;;;5.77;;
4307;SDS011;2167;53.448;9.984;2022-08-25T05:01:41;7.40;;;5.77;;
4307;SDS011;2167;53.448;9.984;2022-08-25T05:04:10;7.37;;;5.57;;
4307;SDS011;2167;53.448;9.984;2022-08-25T05:06:37;6.73;;;4.80;;
4307;SDS011;2167;53.448;9.984;2022-08-25T05:09:03;6.67;;;5.53;;
4307;SDS011;2167;53.448;9.984;2022-08-25T05:11:29;9.57;;;6.17;;
4307;SDS011;2167;53.448;9.984;2022-08-25T05:13:56;13.00;;;6.17;;
4307;SDS011;2167;53.448;9.984;2022-08-25T05:16:24;7.87;;;5.17;;
4307;SDS011;2167;53.448;9.984;2022-08-25T05:18:51;6.00;;;5.17;;
4307;SDS011;2167;53.448;9.984;2022-08-25T05:21:19;19.07;;;6.93;;
4307;SDS011;2167;53.448;9.984;2022-08-25T05:23:48;7.77;;;5.53;;
4307;SDS011;2167;53.448;9.984;2022-08-25T05:26:18;15.33;;;7.00;;
4307;SDS011;2167;53.448;9.984;2022-08-25T05:28:45;10.43;;;6.67;;
4307;SDS011;2167;53.448;9.984;2022-08-25T05:31:13;13.23;;;6.30;;
4307;SDS011;2167;53.448;9.984;2022-08-25T05:33:39;8.80;;;5.87;;
4307;SDS011;2167;53.448;9.984;2022-08-25T05:36:07;7.73;;;6.13;;
4307;SDS011;2167;53.448;9.984;2022-08-25T05:38:34;14.13;;;6.30;;
4307;SDS011;2167;53.448;9.984;2022-08-25T05:41:01;9.37;;;5.60;;
4307;SDS011;2167;53.448;9.984;2022-08-25T05:43:29;11.93;;;6.10;;
4307;SDS011;2167;53.448;9.984;2022-08-25T05:45:55;5.97;;;4.87;;
4307;SDS011;2167;53.448;9.984;2022-08-25T05:48:22;12.53;;;5.63;;
4307;SDS011;2167;53.448;9.984;2022-08-25T05:51:07;10.80;;;6.10;;
4307;SDS011;2167;53.448;9.984;2022-08-25T05:53:34;14.13;;;6.23;;
4307;SDS011;2167;53.448;9.984;2022-08-25T05:56:00;9.67;;;6.03;;
4307;SDS011;2167;53.448;9.984;2022-08-25T05:58:27;10.93;;;6.07;;
4307;SDS011;2167;53.448;9.984;2022-08-25T06:00:53;8.33;;;6.97;;
4307;SDS011;2167;53.448;9.984;2022-08-25T06:03:19;7.60;;;5.90;;
4307;SDS011;2167;53.448;9.984;2022-08-25T06:05:45;14.13;;;6.43;;
4307;SDS011;2167;53.448;9.984;2022-08-25T06:08:11;8.77;;;6.00;;
4307;SDS011;2167;53.448;9.984;2022-08-25T06:10:37;12.97;;;6.20;;
4307;SDS011;2167;53.448;9.984;2022-08-25T06:13:03;9.40;;;6.23;;
4307;SDS011;2167;53.448;9.984;2022-08-25T06:15:29;10.40;;;7.03;;
4307;SDS011;2167;53.448;9.984;2022-08-25T06:17:55;10.83;;;7.80;;
4307;SDS011;2167;53.448;9.984;2022-08-25T06:20:23;14.00;;;9.10;;
4307;SDS011;2167;53.448;9.984;2022-08-25T06:22:51;15.47;;;9.33;;
4307;SDS011;2167;53.448;9.984;2022-08-25T06:25:18;14.90;;;8.27;;
4307;SDS011;2167;53.448;9.984;2022-08-25T06:27:46;19.70;;;10.73;;
4307;SDS011;2167;53.448;9.984;2022-08-25T06:30:13;14.83;;;9.33;;
4307;SDS011;2167;53.448;9.984;2022-08-25T06:32:41;16.20;;;9.10;;
4307;SDS011;2167;53.448;9.984;2022-08-25T06:35:09;19.73;;;10.07;;
4307;SDS011;2167;53.448;9.984;2022-08-25T06:37:36;16.93;;;9.33;;
4307;SDS011;2167;53.448;9.984;2022-08-25T06:40:04;12.97;;;8.80;;
4307;SDS011;2167;53.448;9.984;2022-08-25T06:42:31;15.70;;;9.87;;
4307;SDS011;2167;53.448;9.984;2022-08-25T06:44:56;17.60;;;9.10;;
4307;SDS011;2167;53.448;9.984;2022-08-25T06:47:22;22.67;;;10.50;;
4307;SDS011;2167;53.448;9.984;2022-08-25T06:49:47;18.90;;;12.80;;
4307;SDS011;2167;53.448;9.984;2022-08-25T06:52:13;17.50;;;10.77;;
4307;SDS011;2167;53.448;9.984;2022-08-25T06:54:40;19.13;;;11.00;;
4307;SDS011;2167;53.448;9.984;2022-08-25T06:57:06;14.10;;;10.30;;
4307;SDS011;2167;53.448;9.984;2022-08-25T06:59:32;21.63;;;11.20;;
4307;SDS011;2167;53.448;9.984;2022-08-25T07:01:59;17.57;;;10.23;;
4307;SDS011;2167;53.448;9.984;2022-08-25T07:04:25;16.30;;;10.73;;
4307;SDS011;2167;53.448;9.984;2022-08-25T07:06:51;18.70;;;11.67;;
4307;SDS011;2167;53.448;9.984;2022-08-25T07:09:17;17.30;;;10.93;;
4307;SDS011;2167;53.448;9.984;2022-08-25T07:11:43;16.47;;;11.57;;
4307;SDS011;2167;53.448;9.984;2022-08-25T07:14:10;14.50;;;9.93;;
4307;SDS011;2167;53.448;9.984;2022-08-25T07:16:38;15.90;;;10.50;;
4307;SDS011;2167;53.448;9.984;2022-08-25T07:19:04;16.57;;;10.30;;
4307;SDS011;2167;53.448;9.984;2022-08-25T07:21:31;16.13;;;10.40;;
4307;SDS011;2167;53.448;9.984;2022-08-25T07:23:59;12.70;;;9.13;;
4307;SDS011;2167;53.448;9.984;2022-08-25T07:26:29;13.53;;;8.93;;
4307;SDS011;2167;53.448;9.984;2022-08-25T07:28:58;16.73;;;10.47;;
4307;SDS011;2167;53.448;9.984;2022-08-25T07:31:25;21.63;;;10.60;;
4307;SDS011;2167;53.448;9.984;2022-08-25T07:33:50;18.90;;;10.47;;
4307;SDS011;2167;53.448;9.984;2022-08-25T07:36:34;18.17;;;9.20;;
4307;SDS011;2167;53.448;9.984;2022-08-25T07:39:00;22.00;;;12.10;;
4307;SDS011;2167;53.448;9.984;2022-08-25T07:41:31;17.73;;;11.10;;
4307;SDS011;2167;53.448;9.984;2022-08-25T07:44:00;13.53;;;8.73;;
4307;SDS011;2167;53.448;9.984;2022-08-25T07:46:25;17.90;;;10.53;;
4307;SDS011;2167;53.448;9.984;2022-08-25T07:48:52;15.10;;;10.40;;
4307;SDS011;2167;53.448;9.984;2022-08-25T07:51:17;21.00;;;12.97;;
4307;SDS011;2167;53.448;9.984;2022-08-25T07:53:43;14.00;;;8.70;;
4307;SDS011;2167;53.448;9.984;2022-08-25T07:56:10;14.47;;;9.03;;
4307;SDS011;2167;53.448;9.984;2022-08-25T07:58:37;13.87;;;9.50;;
4307;SDS011;2167;53.448;9.984;2022-08-25T08:01:03;13.73;;;9.80;;
4307;SDS011;2167;53.448;9.984;2022-08-25T08:03:29;12.43;;;8.77;;
4307;SDS011;2167;53.448;9.984;2022-08-25T08:05:55;15.33;;;8.70;;
4307;SDS011;2167;53.448;9.984;2022-08-25T08:08:21;15.30;;;9.83;;
4307;SDS011;2167;53.448;9.984;2022-08-25T08:10:47;19.50;;;10.40;;
4307;SDS011;2167;53.448;9.984;2022-08-25T08:13:13;16.20;;;9.40;;
4307;SDS011;2167;53.448;9.984;2022-08-25T08:15:40;14.90;;;9.20;;
4307;SDS011;2167;53.448;9.984;2022-08-25T08:18:07;15.77;;;9.83;;
4307;SDS011;2167;53.448;9.984;2022-08-25T08:20:34;15.63;;;10.10;;
4307;SDS011;2167;53.448;9.984;2022-08-25T08:23:00;13.80;;;8.43;;
4307;SDS011;2167;53.448;9.984;2022-08-25T08:25:26;14.40;;;9.13;;
4307;SDS011;2167;53.448;9.984;2022-08-25T08:27:52;16.20;;;9.10;;
4307;SDS011;2167;53.448;9.984;2022-08-25T08:30:18;16.50;;;10.50;;
4307;SDS011;2167;53.448;9.984;2022-08-25T08:32:44;15.23;;;9.50;;
4307;SDS011;2167;53.448;9.984;2022-08-25T08:35:09;18.23;;;10.90;;
4307;SDS011;2167;53.448;9.984;2022-08-25T08:37:35;15.67;;;9.97;;
4307;SDS011;2167;53.448;9.984;2022-08-25T08:40:06;15.00;;;8.60;;
4307;SDS011;2167;53.448;9.984;2022-08-25T08:48:35;14.73;;;9.10;;
4307;SDS011;2167;53.448;9.984;2022-08-25T08:51:18;16.10;;;9.37;;
4307;SDS011;2167;53.448;9.984;2022-08-25T08:53:53;14.80;;;8.70;;
4307;SDS011;2167;53.448;9.984;2022-08-25T08:56:37;14.73;;;8.63;;
4307;SDS011;2167;53.448;9.984;2022-08-25T08:59:10;15.87;;;9.83;;
4307;SDS011;2167;53.448;9.984;2022-08-25T09:01:47;14.93;;;8.97;;
4307;SDS011;2167;53.448;9.984;2022-08-25T09:04:28;17.03;;;10.70;;
4307;SDS011;2167;53.448;9.984;2022-08-25T09:07:02;15.97;;;10.10;;
4307;SDS011;2167;53.448;9.984;2022-08-25T09:09:33;13.77;;;9.77;;
4307;SDS011;2167;53.448;9.984;2022-08-25T09:30:03;27.03;;;9.90;;
4307;SDS011;2167;53.448;9.984;2022-08-25T09:32:48;19.37;;;8.90;;
4307;SDS011;2167;53.448;9.984;2022-08-25T09:35:21;12.60;;;8.13;;
4307;SDS011;2167;53.448;9.984;2022-08-25T09:38:06;11.80;;;8.20;;
4307;SDS011;2167;53.448;9.984;2022-08-25T09:40:35;11.60;;;8.73;;
4307;SDS011;2167;53.448;9.984;2022-08-25T09:43:04;15.10;;;8.80;;
4307;SDS011;2167;53.448;9.984;2022-08-25T09:46:22;16.20;;;8.80;;
4307;SDS011;2167;53.448;9.984;2022-08-25T09:48:50;11.40;;;8.57;;
4307;SDS011;2167;53.448;9.984;2022-08-25T09:51:24;19.40;;;9.10;;
4307;SDS011;2167;53.448;9.984;2022-08-25T09:53:59;11.20;;;8.13;;
4307;SDS011;2167;53.448;9.984;2022-08-25T09:56:29;12.13;;;7.73;;
4307;SDS011;2167;53.448;9.984;2022-08-25T10:01:56;14.93;;;9.20;;
4307;SDS011;2167;53.448;9.984;2022-08-25T10:04:30;11.50;;;8.50;;
4307;SDS011;2167;53.448;9.984;2022-08-25T10:07:25;13.43;;;8.10;;
4307;SDS011;2167;53.448;9.984;2022-08-25T10:09:59;12.50;;;9.20;;
4307;SDS011;2167;53.448;9.984;2022-08-25T10:12:36;16.70;;;7.90;;
4307;SDS011;2167;53.448;9.984;2022-08-25T10:15:14;12.43;;;8.67;;
4307;SDS011;2167;53.448;9.984;2022-08-25T10:17:42;13.50;;;8.87;;
4307;SDS011;2167;53.448;9.984;2022-08-25T10:20:12;11.80;;;8.17;;
4307;SDS011;2167;53.448;9.984;2022-08-25T10:22:44;13.97;;;8.90;;
4307;SDS011;2167;53.448;9.984;2022-08-25T10:25:12;10.50;;;7.67;;
4307;SDS011;2167;53.448;9.984;2022-08-25T10:30:48;16.97;;;8.33;;
4307;SDS011;2167;53.448;9.984;2022-08-25T10:36:25;12.10;;;8.30;;
4307;SDS011;2167;53.448;9.984;2022-08-25T10:38:56;11.53;;;7.63;;
4307;SDS011;2167;53.448;9.984;2022-08-25T10:47:38;10.03;;;7.30;;
4307;SDS011;2167;53.448;9.984;2022-08-25T10:55:55;11.70;;;7.43;;
4307;SDS011;2167;53.448;9.984;2022-08-25T10:58:43;11.47;;;7.43;;
4307;SDS011;2167;53.448;9.984;2022-08-25T11:04:02;11.87;;;7.80;;
4307;SDS011;2167;53.448;9.984;2022-08-25T11:06:41;10.90;;;8.17;;
4307;SDS011;2167;53.448;9.984;2022-08-25T11:09:15;10.33;;;7.63;;
4307;SDS011;2167;53.448;9.984;2022-08-25T11:11:57;10.57;;;7.80;;
4307;SDS011;2167;53.448;9.984;2022-08-25T11:14:28;11.10;;;8.10;;
4307;SDS011;2167;53.448;9.984;2022-08-25T11:17:05;7.33;;;6.60;;
4307;SDS011;2167;53.448;9.984;2022-08-25T11:19:38;10.83;;;7.83;;
4307;SDS011;2167;53.448;9.984;2022-08-25T11:27:20;9.20;;;6.30;;
4307;SDS011;2167;53.448;9.984;2022-08-25T11:29:53;8.00;;;6.63;;
4307;SDS011;2167;53.448;9.984;2022-08-25T11:32:24;7.70;;;6.60;;
4307;SDS011;2167;53.448;9.984;2022-08-25T11:34:50;7.77;;;5.77;;
4307;SDS011;2167;53.448;9.984;2022-08-25T11:37:22;9.57;;;6.57;;
4307;SDS011;2167;53.448;9.984;2022-08-25T11:40:13;8.90;;;6.20;;
4307;SDS011;2167;53.448;9.984;2022-08-25T11:48:25;7.57;;;6.10;;
4307;SDS011;2167;53.448;9.984;2022-08-25T11:51:10;10.17;;;7.60;;
4307;SDS011;2167;53.448;9.984;2022-08-25T11:53:51;8.83;;;6.57;;
4307;SDS011;2167;53.448;9.984;2022-08-25T11:56:38;7.40;;;5.87;;
4307;SDS011;2167;53.448;9.984;2022-08-25T11:59:06;5.77;;;5.17;;
4307;SDS011;2167;53.448;9.984;2022-08-25T12:10:06;7.97;;;5.20;;
4307;SDS011;2167;53.448;9.984;2022-08-25T12:15:28;6.13;;;5.07;;
4307;SDS011;2167;53.448;9.984;2022-08-25T12:23:32;5.67;;;4.57;;
4307;SDS011;2167;53.448;9.984;2022-08-25T12:26:03;7.83;;;5.03;;
4307;SDS011;2167;53.448;9.984;2022-08-25T12:28:58;10.03;;;4.93;;
4307;SDS011;2167;53.448;9.984;2022-08-25T12:36:54;6.50;;;4.53;;
4307;SDS011;2167;53.448;9.984;2022-08-25T12:39:41;8.60;;;5.70;;
4307;SDS011;2167;53.448;9.984;2022-08-25T12:45:30;6.83;;;5.00;;
4307;SDS011;2167;53.448;9.984;2022-08-25T12:51:38;6.83;;;4.83;;
4307;SDS011;2167;53.448;9.984;2022-08-25T12:53:48;5.20;;;4.70;;
4307;SDS011;2167;53.448;9.984;2022-08-25T12:56:37;6.43;;;4.80;;
4307;SDS011;2167;53.448;9.984;2022-08-25T12:59:49;6.47;;;5.33;;
4307;SDS011;2167;53.448;9.984;2022-08-25T13:04:53;8.43;;;4.70;;
4307;SDS011;2167;53.448;9.984;2022-08-25T13:07:48;6.40;;;4.97;;
4307;SDS011;2167;53.448;9.984;2022-08-25T13:10:43;6.40;;;4.57;;
4307;SDS011;2167;53.448;9.984;2022-08-25T13:16:20;6.43;;;4.67;;
4307;SDS011;2167;53.448;9.984;2022-08-25T13:18:47;5.03;;;4.30;;
4307;SDS011;2167;53.448;9.984;2022-08-25T13:21:22;6.70;;;5.47;;
4307;SDS011;2167;53.448;9.984;2022-08-25T13:23:54;6.80;;;4.47;;
4307;SDS011;2167;53.448;9.984;2022-08-25T13:26:26;6.60;;;5.07;;
4307;SDS011;2167;53.448;9.984;2022-08-25T13:31:32;6.60;;;4.30;;
4307;SDS011;2167;53.448;9.984;2022-08-25T13:34:01;4.57;;;3.83;;
4307;SDS011;2167;53.448;9.984;2022-08-25T13:36:41;6.90;;;4.70;;
4307;SDS011;2167;53.448;9.984;2022-08-25T13:39:30;5.03;;;4.27;;
4307;SDS011;2167;53.448;9.984;2022-08-25T13:42:00;11.70;;;5.10;;
4307;SDS011;2167;53.448;9.984;2022-08-25T13:44:29;4.40;;;3.53;;
4307;SDS011;2167;53.448;9.984;2022-08-25T13:49:34;4.83;;;4.33;;
4307;SDS011;2167;53.448;9.984;2022-08-25T13:52:00;7.20;;;4.50;;
4307;SDS011;2167;53.448;9.984;2022-08-25T13:54:47;11.00;;;5.67;;
4307;SDS011;2167;53.448;9.984;2022-08-25T13:57:16;6.43;;;4.10;;
4307;SDS011;2167;53.448;9.984;2022-08-25T13:59:48;7.77;;;6.10;;
4307;SDS011;2167;53.448;9.984;2022-08-25T14:05:10;5.90;;;4.50;;
4307;SDS011;2167;53.448;9.984;2022-08-25T14:07:37;7.60;;;5.10;;
4307;SDS011;2167;53.448;9.984;2022-08-25T14:10:05;6.13;;;4.77;;
4307;SDS011;2167;53.448;9.984;2022-08-25T14:12:42;5.50;;;5.00;;
4307;SDS011;2167;53.448;9.984;2022-08-25T14:15:11;5.23;;;4.60;;
4307;SDS011;2167;53.448;9.984;2022-08-25T14:17:59;6.23;;;4.57;;
4307;SDS011;2167;53.448;9.984;2022-08-25T14:20:29;5.40;;;4.53;;
4307;SDS011;2167;53.448;9.984;2022-08-25T14:22:57;7.03;;;4.97;;
4307;SDS011;2167;53.448;9.984;2022-08-25T14:25:27;6.50;;;4.23;;
4307;SDS011;2167;53.448;9.984;2022-08-25T14:27:55;6.83;;;5.07;;
4307;SDS011;2167;53.448;9.984;2022-08-25T14:30:26;5.40;;;3.97;;
4307;SDS011;2167;53.448;9.984;2022-08-25T14:32:52;10.70;;;5.90;;
4307;SDS011;2167;53.448;9.984;2022-08-25T14:35:19;8.50;;;4.13;;
4307;SDS011;2167;53.448;9.984;2022-08-25T14:37:45;5.40;;;4.50;;
4307;SDS011;2167;53.448;9.984;2022-08-25T14:40:12;7.77;;;5.33;;
4307;SDS011;2167;53.448;9.984;2022-08-25T14:42:40;6.87;;;4.77;;
4307;SDS011;2167;53.448;9.984;2022-08-25T14:45:06;7.43;;;4.20;;
4307;SDS011;2167;53.448;9.984;2022-08-25T14:47:32;11.50;;;4.53;;
4307;SDS011;2167;53.448;9.984;2022-08-25T14:49:59;6.60;;;4.60;;
4307;SDS011;2167;53.448;9.984;2022-08-25T14:52:27;6.60;;;5.13;;
4307;SDS011;2167;53.448;9.984;2022-08-25T14:54:54;6.63;;;5.27;;
4307;SDS011;2167;53.448;9.984;2022-08-25T14:57:21;4.63;;;3.93;;
4307;SDS011;2167;53.448;9.984;2022-08-25T14:59:47;11.40;;;5.17;;
4307;SDS011;2167;53.448;9.984;2022-08-25T15:02:14;4.80;;;4.00;;
4307;SDS011;2167;53.448;9.984;2022-08-25T15:04:50;12.80;;;4.50;;
4307;SDS011;2167;53.448;9.984;2022-08-25T15:07:18;9.60;;;4.80;;
4307;SDS011;2167;53.448;9.984;2022-08-25T15:10:02;4.50;;;3.73;;
4307;SDS011;2167;53.448;9.984;2022-08-25T15:12:29;7.70;;;4.80;;
4307;SDS011;2167;53.448;9.984;2022-08-25T15:14:55;9.33;;;5.13;;
4307;SDS011;2167;53.448;9.984;2022-08-25T15:17:22;4.03;;;3.63;;
4307;SDS011;2167;53.448;9.984;2022-08-25T15:19:47;6.13;;;4.40;;
4307;SDS011;2167;53.448;9.984;2022-08-25T15:22:13;6.10;;;3.73;;
4307;SDS011;2167;53.448;9.984;2022-08-25T15:24:39;6.37;;;5.27;;
4307;SDS011;2167;53.448;9.984;2022-08-25T15:27:05;4.30;;;3.90;;
4307;SDS011;2167;53.448;9.984;2022-08-25T15:29:32;5.50;;;4.43;;
4307;SDS011;2167;53.448;9.984;2022-08-25T15:31:59;5.50;;;3.97;;
4307;SDS011;2167;53.448;9.984;2022-08-25T15:34:26;7.33;;;3.80;;
4307;SDS011;2167;53.448;9.984;2022-08-25T15:36:52;6.37;;;4.23;;
4307;SDS011;2167;53.448;9.984;2022-08-25T15:39:18;5.30;;;4.10;;
4307;SDS011;2167;53.448;9.984;2022-08-25T15:41:45;4.53;;;4.10;;
4307;SDS011;2167;53.448;9.984;2022-08-25T15:44:12;4.90;;;4.03;;
4307;SDS011;2167;53.448;9.984;2022-08-25T15:46:38;9.80;;;4.20;;
4307;SDS011;2167;53.448;9.984;2022-08-25T15:49:05;6.83;;;4.50;;
4307;SDS011;2167;53.448;9.984;2022-08-25T15:51:31;8.53;;;4.10;;
4307;SDS011;2167;53.448;9.984;2022-08-25T15:53:57;4.77;;;4.20;;
4307;SDS011;2167;53.448;9.984;2022-08-25T15:56:23;6.57;;;4.40;;
4307;SDS011;2167;53.448;9.984;2022-08-25T15:58:49;6.67;;;4.80;;
4307;SDS011;2167;53.448;9.984;2022-08-25T16:01:18;6.10;;;4.67;;
4307;SDS011;2167;53.448;9.984;2022-08-25T16:03:46;6.00;;;3.80;;
4307;SDS011;2167;53.448;9.984;2022-08-25T16:06:12;7.53;;;4.10;;
4307;SDS011;2167;53.448;9.984;2022-08-25T16:08:38;5.73;;;4.00;;
4307;SDS011;2167;53.448;9.984;2022-08-25T16:11:04;7.40;;;4.60;;
4307;SDS011;2167;53.448;9.984;2022-08-25T16:13:31;5.30;;;4.00;;
4307;SDS011;2167;53.448;9.984;2022-08-25T16:15:57;7.43;;;4.23;;
4307;SDS011;2167;53.448;9.984;2022-08-25T16:18:23;7.23;;;4.53;;
4307;SDS011;2167;53.448;9.984;2022-08-25T16:20:50;4.40;;;3.67;;
4307;SDS011;2167;53.448;9.984;2022-08-25T16:23:17;5.80;;;4.00;;
4307;SDS011;2167;53.448;9.984;2022-08-25T16:25:44;9.03;;;3.90;;
4307;SDS011;2167;53.448;9.984;2022-08-25T16:28:11;7.03;;;4.63;;
4307;SDS011;2167;53.448;9.984;2022-08-25T16:30:38;6.07;;;4.03;;
4307;SDS011;2167;53.448;9.984;2022-08-25T16:33:05;8.77;;;4.23;;
4307;SDS011;2167;53.448;9.984;2022-08-25T16:35:31;8.97;;;4.90;;
4307;SDS011;2167;53.448;9.984;2022-08-25T16:37:57;7.20;;;5.03;;
4307;SDS011;2167;53.448;9.984;2022-08-25T16:40:28;7.37;;;6.23;;
4307;SDS011;2167;53.448;9.984;2022-08-25T16:42:55;12.83;;;6.03;;
4307;SDS011;2167;53.448;9.984;2022-08-25T16:45:21;5.60;;;4.30;;
4307;SDS011;2167;53.448;9.984;2022-08-25T16:47:47;10.33;;;5.00;;
4307;SDS011;2167;53.448;9.984;2022-08-25T16:50:13;10.23;;;4.63;;
4307;SDS011;2167;53.448;9.984;2022-08-25T16:52:40;11.40;;;4.40;;
4307;SDS011;2167;53.448;9.984;2022-08-25T16:55:25;7.23;;;3.93;;
4307;SDS011;2167;53.448;9.984;2022-08-25T16:57:54;4.90;;;4.33;;
4307;SDS011;2167;53.448;9.984;2022-08-25T17:00:21;5.20;;;4.70;;
4307;SDS011;2167;53.448;9.984;2022-08-25T17:02:49;4.47;;;4.00;;
4307;SDS011;2167;53.448;9.984;2022-08-25T17:05:18;8.53;;;4.87;;
4307;SDS011;2167;53.448;9.984;2022-08-25T17:07:44;5.57;;;4.20;;
4307;SDS011;2167;53.448;9.984;2022-08-25T17:10:33;4.67;;;4.20;;
4307;SDS011;2167;53.448;9.984;2022-08-25T17:13:02;5.50;;;4.60;;